sensor_id;sensor_type;location;lat;lon;timestamp;pressure;altitude;pressure_sealevel;temperature;humidity
74169;BME280;62523;53.336;83.690;2023-10-31T00:02:29;98348.75;;;-1.49;100.00
74169;BME280;62523;53.336;83.690;2023-10-31T00:07:30;98363.38;;;-1.48;100.00
74169;BME280;62523;53.336;83.690;2023-10-31T00:12:31;98363.25;;;-1.43;100.00
74169;BME280;62523;53.336;83.690;2023-10-31T00:17:36;98356.25;;;-1.38;100.00
74169;BME280;62523;53.336;83.690;2023-10-31T00:22:47;98345.00;;;-1.35;100.00
74169;BME280;62523;53.336;83.690;2023-10-31T00:27:48;98345.28;;;-1.48;100.00
74169;BME280;62523;53.336;83.690;2023-10-31T00:32:49;98340.25;;;-1.52;100.00
74169;BME280;62523;53.336;83.690;2023-10-31T00:37:51;98330.84;;;-1.55;100.00
74169;BME280;62523;53.336;83.690;2023-10-31T00:42:52;98335.00;;;-1.51;100.00
74169;BME280;62523;53.336;83.690;2023-10-31T00:47:54;98329.84;;;-1.51;100.00
74169;BME280;62523;53.336;83.690;2023-10-31T00:52:56;98330.63;;;-1.47;100.00
74169;BME280;62523;53.336;83.690;2023-10-31T00:57:57;98326.41;;;-1.50;100.00
74169;BME280;62523;53.336;83.690;2023-10-31T01:02:59;98324.59;;;-1.46;100.00
74169;BME280;62523;53.336;83.690;2023-10-31T01:08:00;98317.97;;;-1.58;100.00
74169;BME280;62523;53.336;83.690;2023-10-31T01:13:01;98320.91;;;-1.73;100.00
74169;BME280;62523;53.336;83.690;2023-10-31T01:18:02;98331.84;;;-1.62;100.00
74169;BME280;62523;53.336;83.690;2023-10-31T01:23:03;98325.16;;;-1.71;100.00
74169;BME280;62523;53.336;83.690;2023-10-31T01:28:05;98337.84;;;-1.61;100.00
74169;BME280;62523;53.336;83.690;2023-10-31T01:33:06;98349.16;;;-1.66;100.00
74169;BME280;62523;53.336;83.690;2023-10-31T01:38:10;98335.59;;;-1.75;100.00
74169;BME280;62523;53.336;83.690;2023-10-31T01:43:13;98325.00;;;-1.65;100.00
74169;BME280;62523;53.336;83.690;2023-10-31T01:48:14;98331.78;;;-1.59;100.00
74169;BME280;62523;53.336;83.690;2023-10-31T01:53:15;98333.44;;;-1.56;100.00
74169;BME280;62523;53.336;83.690;2023-10-31T01:58:17;98335.34;;;-1.65;100.00
74169;BME280;62523;53.336;83.690;2023-10-31T02:03:19;98340.38;;;-1.58;100.00
74169;BME280;62523;53.336;83.690;2023-10-31T02:08:29;98349.88;;;-1.60;100.00
74169;BME280;62523;53.336;83.690;2023-10-31T02:13:31;98364.44;;;-1.56;100.00
74169;BME280;62523;53.336;83.690;2023-10-31T02:18:33;98359.03;;;-1.46;100.00
74169;BME280;62523;53.336;83.690;2023-10-31T02:23:34;98347.16;;;-1.54;100.00
74169;BME280;62523;53.336;83.690;2023-10-31T02:28:35;98354.03;;;-1.53;100.00
74169;BME280;62523;53.336;83.690;2023-10-31T02:33:37;98347.84;;;-1.46;100.00
74169;BME280;62523;53.336;83.690;2023-10-31T02:38:39;98354.72;;;-1.47;100.00
74169;BME280;62523;53.336;83.690;2023-10-31T02:43:40;98342.72;;;-1.49;100.00
74169;BME280;62523;53.336;83.690;2023-10-31T02:48:42;98353.41;;;-1.65;100.00
74169;BME280;62523;53.336;83.690;2023-10-31T02:53:43;98343.78;;;-1.56;100.00
74169;BME280;62523;53.336;83.690;2023-10-31T02:58:44;98341.53;;;-1.34;100.00
74169;BME280;62523;53.336;83.690;2023-10-31T03:03:46;98330.72;;;-1.50;100.00
74169;BME280;62523;53.336;83.690;2023-10-31T03:08:47;98332.16;;;-1.38;100.00
74169;BME280;62523;53.336;83.690;2023-10-31T03:13:49;98318.78;;;-1.20;100.00
74169;BME280;62523;53.336;83.690;2023-10-31T03:18:50;98311.75;;;-1.15;100.00
74169;BME280;62523;53.336;83.690;2023-10-31T03:23:52;98326.53;;;-1.20;100.00
74169;BME280;62523;53.336;83.690;2023-10-31T03:28:56;98333.72;;;-1.31;100.00
74169;BME280;62523;53.336;83.690;2023-10-31T03:34:03;98324.97;;;-0.93;100.00
74169;BME280;62523;53.336;83.690;2023-10-31T03:39:04;98321.72;;;-0.99;100.00
74169;BME280;62523;53.336;83.690;2023-10-31T03:44:06;98327.91;;;-1.05;100.00
74169;BME280;62523;53.336;83.690;2023-10-31T03:49:07;98322.75;;;-1.07;100.00
74169;BME280;62523;53.336;83.690;2023-10-31T03:54:09;98316.53;;;-0.99;100.00
74169;BME280;62523;53.336;83.690;2023-10-31T03:59:11;98318.09;;;-0.92;100.00
74169;BME280;62523;53.336;83.690;2023-10-31T04:04:12;98312.59;;;-0.80;100.00
74169;BME280;62523;53.336;83.690;2023-10-31T04:09:14;98308.72;;;-0.96;100.00
74169;BME280;62523;53.336;83.690;2023-10-31T04:14:15;98295.41;;;-0.83;100.00
74169;BME280;62523;53.336;83.690;2023-10-31T04:19:16;98295.63;;;-0.90;100.00
74169;BME280;62523;53.336;83.690;2023-10-31T04:24:17;98290.72;;;-0.68;100.00
74169;BME280;62523;53.336;83.690;2023-10-31T04:29:19;98297.19;;;-0.85;100.00
74169;BME280;62523;53.336;83.690;2023-10-31T04:34:20;98298.91;;;-0.84;100.00
74169;BME280;62523;53.336;83.690;2023-10-31T04:39:21;98301.41;;;-0.80;100.00
74169;BME280;62523;53.336;83.690;2023-10-31T04:44:22;98295.44;;;-0.51;100.00
74169;BME280;62523;53.336;83.690;2023-10-31T04:49:24;98299.16;;;-0.62;100.00
74169;BME280;62523;53.336;83.690;2023-10-31T04:54:25;98301.94;;;-0.69;100.00
74169;BME280;62523;53.336;83.690;2023-10-31T04:59:27;98293.63;;;-0.80;100.00
74169;BME280;62523;53.336;83.690;2023-10-31T05:04:28;98286.44;;;-0.69;100.00
74169;BME280;62523;53.336;83.690;2023-10-31T05:09:30;98299.13;;;-0.30;100.00
74169;BME280;62523;53.336;83.690;2023-10-31T05:14:33;98333.09;;;3.71;100.00
74169;BME280;62523;53.336;83.690;2023-10-31T05:19:34;98358.28;;;2.20;100.00
74169;BME280;62523;53.336;83.690;2023-10-31T05:24:35;98360.38;;;2.56;100.00
74169;BME280;62523;53.336;83.690;2023-10-31T05:29:38;98367.50;;;2.95;100.00
74169;BME280;62523;53.336;83.690;2023-10-31T05:34:39;98362.25;;;2.75;100.00
74169;BME280;62523;53.336;83.690;2023-10-31T05:39:41;98343.56;;;2.19;100.00
74169;BME280;62523;53.336;83.690;2023-10-31T05:44:42;98356.56;;;2.19;100.00
74169;BME280;62523;53.336;83.690;2023-10-31T05:49:43;98362.91;;;2.12;100.00
74169;BME280;62523;53.336;83.690;2023-10-31T05:54:45;98367.53;;;2.73;100.00
74169;BME280;62523;53.336;83.690;2023-10-31T05:59:46;98367.66;;;2.24;100.00
74169;BME280;62523;53.336;83.690;2023-10-31T06:04:48;98359.53;;;1.87;100.00
74169;BME280;62523;53.336;83.690;2023-10-31T06:09:49;98360.69;;;2.25;100.00
74169;BME280;62523;53.336;83.690;2023-10-31T06:14:52;98355.56;;;2.00;100.00
74169;BME280;62523;53.336;83.690;2023-10-31T06:19:53;98358.72;;;2.32;100.00
74169;BME280;62523;53.336;83.690;2023-10-31T06:24:55;98353.72;;;2.49;100.00
74169;BME280;62523;53.336;83.690;2023-10-31T06:29:58;98355.16;;;2.34;100.00
74169;BME280;62523;53.336;83.690;2023-10-31T06:35:00;98352.69;;;2.08;100.00
74169;BME280;62523;53.336;83.690;2023-10-31T06:40:01;98358.28;;;1.97;100.00
74169;BME280;62523;53.336;83.690;2023-10-31T06:45:03;98360.19;;;1.68;100.00
74169;BME280;62523;53.336;83.690;2023-10-31T06:50:07;98356.38;;;1.28;100.00
74169;BME280;62523;53.336;83.690;2023-10-31T06:55:08;98345.94;;;1.55;100.00
74169;BME280;62523;53.336;83.690;2023-10-31T07:00:10;98347.13;;;1.21;100.00
74169;BME280;62523;53.336;83.690;2023-10-31T07:05:12;98353.84;;;1.27;100.00
74169;BME280;62523;53.336;83.690;2023-10-31T07:10:17;98348.56;;;1.30;100.00
74169;BME280;62523;53.336;83.690;2023-10-31T07:15:19;98339.81;;;1.57;100.00
74169;BME280;62523;53.336;83.690;2023-10-31T07:20:20;98342.25;;;1.37;100.00
74169;BME280;62523;53.336;83.690;2023-10-31T07:25:21;98346.13;;;1.25;100.00
74169;BME280;62523;53.336;83.690;2023-10-31T07:30:22;98347.03;;;0.97;100.00
74169;BME280;62523;53.336;83.690;2023-10-31T07:35:24;98357.34;;;1.26;100.00
74169;BME280;62523;53.336;83.690;2023-10-31T07:40:25;98355.72;;;0.96;100.00
74169;BME280;62523;53.336;83.690;2023-10-31T07:45:26;98354.75;;;1.26;100.00
74169;BME280;62523;53.336;83.690;2023-10-31T07:50:28;98350.59;;;0.95;100.00
74169;BME280;62523;53.336;83.690;2023-10-31T07:55:29;98355.81;;;0.93;100.00
74169;BME280;62523;53.336;83.690;2023-10-31T08:00:30;98357.22;;;1.29;100.00
74169;BME280;62523;53.336;83.690;2023-10-31T08:05:32;98375.28;;;0.80;100.00
74169;BME280;62523;53.336;83.690;2023-10-31T08:10:33;98377.28;;;0.70;100.00
74169;BME280;62523;53.336;83.690;2023-10-31T08:15:35;98383.34;;;0.97;100.00
74169;BME280;62523;53.336;83.690;2023-10-31T08:20:36;98381.56;;;0.99;100.00
74169;BME280;62523;53.336;83.690;2023-10-31T08:25:38;98391.63;;;0.54;100.00
74169;BME280;62523;53.336;83.690;2023-10-31T08:30:39;98400.13;;;0.59;100.00
74169;BME280;62523;53.336;83.690;2023-10-31T08:35:41;98414.41;;;0.43;100.00
74169;BME280;62523;53.336;83.690;2023-10-31T08:40:43;98422.25;;;0.11;100.00
74169;BME280;62523;53.336;83.690;2023-10-31T08:45:45;98439.91;;;0.28;100.00
74169;BME280;62523;53.336;83.690;2023-10-31T08:50:47;98445.41;;;0.16;100.00
74169;BME280;62523;53.336;83.690;2023-10-31T08:55:48;98452.09;;;0.54;100.00
74169;BME280;62523;53.336;83.690;2023-10-31T09:00:50;98442.75;;;0.49;100.00
74169;BME280;62523;53.336;83.690;2023-10-31T09:05:52;98452.53;;;0.39;100.00
74169;BME280;62523;53.336;83.690;2023-10-31T09:10:53;98451.31;;;0.80;100.00
74169;BME280;62523;53.336;83.690;2023-10-31T09:15:55;98448.91;;;0.45;100.00
74169;BME280;62523;53.336;83.690;2023-10-31T09:20:56;98468.88;;;0.71;100.00
74169;BME280;62523;53.336;83.690;2023-10-31T09:25:59;98474.78;;;0.46;100.00
74169;BME280;62523;53.336;83.690;2023-10-31T09:31:00;98479.25;;;0.41;100.00
74169;BME280;62523;53.336;83.690;2023-10-31T09:36:02;98482.91;;;0.34;100.00
74169;BME280;62523;53.336;83.690;2023-10-31T09:41:04;98491.84;;;0.53;100.00
74169;BME280;62523;53.336;83.690;2023-10-31T09:46:05;98505.97;;;0.43;100.00
74169;BME280;62523;53.336;83.690;2023-10-31T09:51:09;98517.50;;;0.63;100.00
74169;BME280;62523;53.336;83.690;2023-10-31T09:56:14;98524.78;;;0.50;100.00
74169;BME280;62523;53.336;83.690;2023-10-31T10:01:16;98533.72;;;0.07;100.00
74169;BME280;62523;53.336;83.690;2023-10-31T10:06:18;98546.97;;;-0.04;100.00
74169;BME280;62523;53.336;83.690;2023-10-31T10:11:22;98561.53;;;0.00;100.00
74169;BME280;62523;53.336;83.690;2023-10-31T10:16:32;98567.59;;;-0.01;100.00
74169;BME280;62523;53.336;83.690;2023-10-31T10:21:45;98560.34;;;0.12;100.00
74169;BME280;62523;53.336;83.690;2023-10-31T10:26:47;98564.69;;;-0.23;100.00
74169;BME280;62523;53.336;83.690;2023-10-31T10:31:48;98575.69;;;0.19;100.00
74169;BME280;62523;53.336;83.690;2023-10-31T10:36:50;98583.00;;;0.04;100.00
74169;BME280;62523;53.336;83.690;2023-10-31T10:41:52;98608.00;;;-0.30;100.00
74169;BME280;62523;53.336;83.690;2023-10-31T10:46:58;98607.31;;;-0.38;100.00
74169;BME280;62523;53.336;83.690;2023-10-31T10:52:47;98617.41;;;-0.27;100.00
74169;BME280;62523;53.336;83.690;2023-10-31T11:02:32;98639.31;;;-0.42;100.00
74169;BME280;62523;53.336;83.690;2023-10-31T11:07:39;98647.59;;;-0.65;100.00
74169;BME280;62523;53.336;83.690;2023-10-31T11:12:46;98656.81;;;-0.92;100.00
74169;BME280;62523;53.336;83.690;2023-10-31T11:17:47;98676.50;;;-1.32;100.00
74169;BME280;62523;53.336;83.690;2023-10-31T11:22:49;98683.22;;;-1.23;100.00
74169;BME280;62523;53.336;83.690;2023-10-31T11:27:56;98694.66;;;-1.33;100.00
74169;BME280;62523;53.336;83.690;2023-10-31T11:32:59;98700.69;;;-1.36;100.00
74169;BME280;62523;53.336;83.690;2023-10-31T11:38:05;98710.09;;;-1.32;100.00
74169;BME280;62523;53.336;83.690;2023-10-31T11:43:09;98730.78;;;-1.32;100.00
74169;BME280;62523;53.336;83.690;2023-10-31T11:48:12;98733.47;;;-1.38;100.00
74169;BME280;62523;53.336;83.690;2023-10-31T11:53:14;98738.41;;;-1.24;100.00
74169;BME280;62523;53.336;83.690;2023-10-31T11:58:19;98751.28;;;-1.74;100.00
74169;BME280;62523;53.336;83.690;2023-10-31T12:03:20;98763.78;;;-1.48;100.00
74169;BME280;62523;53.336;83.690;2023-10-31T12:08:28;98768.94;;;-1.48;100.00
74169;BME280;62523;53.336;83.690;2023-10-31T12:13:30;98785.44;;;-1.56;100.00
74169;BME280;62523;53.336;83.690;2023-10-31T12:18:31;98794.81;;;-1.51;100.00
74169;BME280;62523;53.336;83.690;2023-10-31T12:23:32;98800.81;;;-1.49;100.00
74169;BME280;62523;53.336;83.690;2023-10-31T12:28:33;98806.22;;;-1.64;100.00
74169;BME280;62523;53.336;83.690;2023-10-31T12:33:34;98814.19;;;-1.24;100.00
74169;BME280;62523;53.336;83.690;2023-10-31T12:38:36;98823.19;;;-1.48;100.00
74169;BME280;62523;53.336;83.690;2023-10-31T12:43:37;98828.69;;;-1.69;100.00
74169;BME280;62523;53.336;83.690;2023-10-31T12:48:38;98843.13;;;-1.56;100.00
74169;BME280;62523;53.336;83.690;2023-10-31T12:53:40;98850.19;;;-1.67;100.00
74169;BME280;62523;53.336;83.690;2023-10-31T12:58:50;98861.81;;;-1.40;100.00
74169;BME280;62523;53.336;83.690;2023-10-31T13:04:00;98874.97;;;-1.55;100.00
74169;BME280;62523;53.336;83.690;2023-10-31T13:09:02;98889.63;;;-1.57;100.00
74169;BME280;62523;53.336;83.690;2023-10-31T13:14:14;98900.78;;;-1.52;100.00
74169;BME280;62523;53.336;83.690;2023-10-31T13:19:15;98909.31;;;-1.47;100.00
74169;BME280;62523;53.336;83.690;2023-10-31T13:24:17;98914.75;;;-1.66;100.00
74169;BME280;62523;53.336;83.690;2023-10-31T13:29:19;98925.78;;;-1.57;100.00
74169;BME280;62523;53.336;83.690;2023-10-31T13:34:21;98943.41;;;-1.87;100.00
74169;BME280;62523;53.336;83.690;2023-10-31T13:39:23;98945.91;;;-1.81;100.00
74169;BME280;62523;53.336;83.690;2023-10-31T13:44:25;98941.56;;;-1.76;100.00
74169;BME280;62523;53.336;83.690;2023-10-31T13:49:28;98957.31;;;-1.99;100.00
74169;BME280;62523;53.336;83.690;2023-10-31T13:54:29;98964.16;;;-1.95;100.00
74169;BME280;62523;53.336;83.690;2023-10-31T13:59:31;98968.41;;;-1.91;100.00
74169;BME280;62523;53.336;83.690;2023-10-31T14:04:32;98974.13;;;-1.66;100.00
74169;BME280;62523;53.336;83.690;2023-10-31T14:09:34;98977.66;;;-1.71;100.00
74169;BME280;62523;53.336;83.690;2023-10-31T14:14:36;98995.97;;;-1.93;100.00
74169;BME280;62523;53.336;83.690;2023-10-31T14:19:37;99002.81;;;-1.90;100.00
74169;BME280;62523;53.336;83.690;2023-10-31T14:24:38;99003.88;;;-2.08;100.00
74169;BME280;62523;53.336;83.690;2023-10-31T14:29:40;99018.63;;;-2.19;100.00
74169;BME280;62523;53.336;83.690;2023-10-31T14:34:41;99029.53;;;-1.93;100.00
74169;BME280;62523;53.336;83.690;2023-10-31T14:39:43;99034.75;;;-1.97;100.00
74169;BME280;62523;53.336;83.690;2023-10-31T14:44:44;99050.50;;;-2.25;100.00
74169;BME280;62523;53.336;83.690;2023-10-31T14:49:45;99053.16;;;-2.36;100.00
74169;BME280;62523;53.336;83.690;2023-10-31T14:54:47;99061.72;;;-2.31;100.00
74169;BME280;62523;53.336;83.690;2023-10-31T14:59:49;99063.47;;;-2.36;100.00
74169;BME280;62523;53.336;83.690;2023-10-31T15:04:51;99071.88;;;-2.15;100.00
74169;BME280;62523;53.336;83.690;2023-10-31T15:09:55;99069.41;;;-2.26;100.00
74169;BME280;62523;53.336;83.690;2023-10-31T15:14:56;99072.91;;;-2.30;100.00
74169;BME280;62523;53.336;83.690;2023-10-31T15:19:57;99069.41;;;-2.21;100.00
74169;BME280;62523;53.336;83.690;2023-10-31T15:25:00;99073.66;;;-2.19;100.00
74169;BME280;62523;53.336;83.690;2023-10-31T15:30:01;99074.59;;;-2.28;100.00
74169;BME280;62523;53.336;83.690;2023-10-31T15:35:04;99076.78;;;-1.84;100.00
74169;BME280;62523;53.336;83.690;2023-10-31T15:40:07;99085.69;;;-2.15;100.00
74169;BME280;62523;53.336;83.690;2023-10-31T15:45:08;99103.75;;;-2.16;100.00
74169;BME280;62523;53.336;83.690;2023-10-31T15:50:10;99103.84;;;-2.25;100.00
74169;BME280;62523;53.336;83.690;2023-10-31T15:55:11;99114.31;;;-2.49;100.00
74169;BME280;62523;53.336;83.690;2023-10-31T16:00:13;99105.66;;;-2.41;100.00
74169;BME280;62523;53.336;83.690;2023-10-31T16:05:14;99115.16;;;-2.47;100.00
74169;BME280;62523;53.336;83.690;2023-10-31T16:10:16;99118.59;;;-2.48;100.00
74169;BME280;62523;53.336;83.690;2023-10-31T16:15:17;99132.34;;;-2.44;100.00
74169;BME280;62523;53.336;83.690;2023-10-31T16:20:18;99134.06;;;-2.43;100.00
74169;BME280;62523;53.336;83.690;2023-10-31T16:25:19;99137.56;;;-2.53;100.00
74169;BME280;62523;53.336;83.690;2023-10-31T16:30:21;99149.63;;;-2.63;100.00
74169;BME280;62523;53.336;83.690;2023-10-31T16:35:22;99166.75;;;-2.45;100.00
74169;BME280;62523;53.336;83.690;2023-10-31T16:40:23;99165.97;;;-2.58;100.00
74169;BME280;62523;53.336;83.690;2023-10-31T16:45:25;99175.34;;;-2.43;100.00
74169;BME280;62523;53.336;83.690;2023-10-31T16:50:26;99184.72;;;-2.33;100.00
74169;BME280;62523;53.336;83.690;2023-10-31T16:55:31;99185.78;;;-2.64;100.00
74169;BME280;62523;53.336;83.690;2023-10-31T17:00:32;99188.19;;;-2.38;100.00
74169;BME280;62523;53.336;83.690;2023-10-31T17:05:34;99189.09;;;-2.41;100.00
74169;BME280;62523;53.336;83.690;2023-10-31T17:10:35;99192.56;;;-2.51;100.00
74169;BME280;62523;53.336;83.690;2023-10-31T17:15:36;99196.81;;;-2.42;100.00
74169;BME280;62523;53.336;83.690;2023-10-31T17:20:37;99208.06;;;-2.56;100.00
74169;BME280;62523;53.336;83.690;2023-10-31T17:25:39;99204.63;;;-2.52;100.00
74169;BME280;62523;53.336;83.690;2023-10-31T17:30:40;99202.97;;;-2.71;100.00
74169;BME280;62523;53.336;83.690;2023-10-31T17:35:41;99205.56;;;-2.70;100.00
74169;BME280;62523;53.336;83.690;2023-10-31T17:40:42;99220.09;;;-2.55;100.00
74169;BME280;62523;53.336;83.690;2023-10-31T17:45:44;99232.91;;;-2.39;100.00
74169;BME280;62523;53.336;83.690;2023-10-31T17:50:46;99240.84;;;-2.87;100.00
74169;BME280;62523;53.336;83.690;2023-10-31T17:55:48;99247.69;;;-2.80;100.00
74169;BME280;62523;53.336;83.690;2023-10-31T18:00:49;99245.84;;;-2.45;100.00
74169;BME280;62523;53.336;83.690;2023-10-31T18:05:51;99252.81;;;-2.64;100.00
74169;BME280;62523;53.336;83.690;2023-10-31T18:10:54;99257.88;;;-2.44;100.00
74169;BME280;62523;53.336;83.690;2023-10-31T18:15:56;99266.56;;;-2.62;100.00
74169;BME280;62523;53.336;83.690;2023-10-31T18:20:57;99262.38;;;-2.94;100.00
74169;BME280;62523;53.336;83.690;2023-10-31T18:26:02;99277.00;;;-3.01;100.00
74169;BME280;62523;53.336;83.690;2023-10-31T18:31:03;99282.16;;;-3.02;100.00
74169;BME280;62523;53.336;83.690;2023-10-31T18:36:05;99282.09;;;-2.84;100.00
74169;BME280;62523;53.336;83.690;2023-10-31T18:41:06;99281.28;;;-3.12;100.00
74169;BME280;62523;53.336;83.690;2023-10-31T18:46:11;99288.19;;;-3.16;100.00
74169;BME280;62523;53.336;83.690;2023-10-31T18:51:12;99287.25;;;-2.79;100.00
74169;BME280;62523;53.336;83.690;2023-10-31T18:56:13;99294.16;;;-2.98;100.00
74169;BME280;62523;53.336;83.690;2023-10-31T19:01:14;99294.16;;;-2.97;100.00
74169;BME280;62523;53.336;83.690;2023-10-31T19:06:17;99293.34;;;-3.11;100.00
74169;BME280;62523;53.336;83.690;2023-10-31T19:11:19;99303.63;;;-3.02;100.00
74169;BME280;62523;53.336;83.690;2023-10-31T19:16:20;99312.19;;;-2.95;100.00
74169;BME280;62523;53.336;83.690;2023-10-31T19:21:23;99313.88;;;-2.79;100.00
74169;BME280;62523;53.336;83.690;2023-10-31T19:26:24;99313.91;;;-2.83;100.00
74169;BME280;62523;53.336;83.690;2023-10-31T19:31:25;99333.69;;;-2.99;100.00
74169;BME280;62523;53.336;83.690;2023-10-31T19:36:26;99333.69;;;-3.04;100.00
74169;BME280;62523;53.336;83.690;2023-10-31T19:41:31;99353.47;;;-3.29;100.00
74169;BME280;62523;53.336;83.690;2023-10-31T19:46:32;99361.19;;;-3.09;100.00
74169;BME280;62523;53.336;83.690;2023-10-31T19:51:34;99368.00;;;-2.82;100.00
74169;BME280;62523;53.336;83.690;2023-10-31T19:56:35;99363.69;;;-2.60;100.00
74169;BME280;62523;53.336;83.690;2023-10-31T20:01:37;99372.31;;;-2.82;100.00
74169;BME280;62523;53.336;83.690;2023-10-31T20:06:38;99375.75;;;-2.79;100.00
74169;BME280;62523;53.336;83.690;2023-10-31T20:11:42;99380.03;;;-2.72;100.00
74169;BME280;62523;53.336;83.690;2023-10-31T20:16:44;99380.94;;;-2.91;100.00
74169;BME280;62523;53.336;83.690;2023-10-31T20:21:46;99391.25;;;-3.16;100.00
74169;BME280;62523;53.336;83.690;2023-10-31T20:26:51;99392.09;;;-3.26;100.00
74169;BME280;62523;53.336;83.690;2023-10-31T20:31:52;99395.53;;;-3.32;100.00
74169;BME280;62523;53.336;83.690;2023-10-31T20:36:56;99404.97;;;-3.37;100.00
74169;BME280;62523;53.336;83.690;2023-10-31T20:41:58;99410.13;;;-3.43;100.00
74169;BME280;62523;53.336;83.690;2023-10-31T20:46:59;99409.31;;;-3.16;100.00
74169;BME280;62523;53.336;83.690;2023-10-31T20:52:00;99435.06;;;-3.10;100.00
74169;BME280;62523;53.336;83.690;2023-10-31T20:57:01;99433.31;;;-3.23;100.00
74169;BME280;62523;53.336;83.690;2023-10-31T21:02:03;99441.88;;;-3.41;100.00
74169;BME280;62523;53.336;83.690;2023-10-31T21:07:04;99445.34;;;-3.33;100.00
74169;BME280;62523;53.336;83.690;2023-10-31T21:12:06;99445.34;;;-3.19;100.00
74169;BME280;62523;53.336;83.690;2023-10-31T21:17:08;99443.66;;;-3.29;100.00
74169;BME280;62523;53.336;83.690;2023-10-31T21:22:10;99456.53;;;-3.24;100.00
74169;BME280;62523;53.336;83.690;2023-10-31T21:27:11;99456.50;;;-3.35;100.00
74169;BME280;62523;53.336;83.690;2023-10-31T21:32:12;99462.53;;;-3.19;100.00
74169;BME280;62523;53.336;83.690;2023-10-31T21:37:14;99467.72;;;-3.02;100.00
74169;BME280;62523;53.336;83.690;2023-10-31T21:42:15;99475.41;;;-3.24;100.00
74169;BME280;62523;53.336;83.690;2023-10-31T21:47:16;99483.13;;;-3.35;100.00
74169;BME280;62523;53.336;83.690;2023-10-31T21:52:18;99493.44;;;-3.35;100.00
74169;BME280;62523;53.336;83.690;2023-10-31T21:57:19;99495.19;;;-3.09;100.00
74169;BME280;62523;53.336;83.690;2023-10-31T22:02:20;99502.00;;;-3.37;100.00
74169;BME280;62523;53.336;83.690;2023-10-31T22:07:21;99511.44;;;-3.39;100.00
74169;BME280;62523;53.336;83.690;2023-10-31T22:12:25;99505.47;;;-3.29;100.00
74169;BME280;62523;53.336;83.690;2023-10-31T22:17:26;99510.63;;;-3.17;100.00
74169;BME280;62523;53.336;83.690;2023-10-31T22:22:28;99514.09;;;-3.13;100.00
74169;BME280;62523;53.336;83.690;2023-10-31T22:27:29;99529.53;;;-3.05;100.00
74169;BME280;62523;53.336;83.690;2023-10-31T22:32:30;99537.19;;;-3.38;100.00
74169;BME280;62523;53.336;83.690;2023-10-31T22:37:32;99541.53;;;-3.31;100.00
74169;BME280;62523;53.336;83.690;2023-10-31T22:42:35;99554.44;;;-3.21;100.00
74169;BME280;62523;53.336;83.690;2023-10-31T22:47:45;99574.06;;;-3.46;100.00
74169;BME280;62523;53.336;83.690;2023-10-31T22:52:46;99579.34;;;-3.17;100.00
74169;BME280;62523;53.336;83.690;2023-10-31T22:57:48;99567.38;;;-3.03;100.00
74169;BME280;62523;53.336;83.690;2023-10-31T23:02:49;99584.44;;;-3.42;100.00
74169;BME280;62523;53.336;83.690;2023-10-31T23:07:53;99582.69;;;-3.43;100.00
74169;BME280;62523;53.336;83.690;2023-10-31T23:12:54;99597.41;;;-3.17;100.00
74169;BME280;62523;53.336;83.690;2023-10-31T23:17:56;99596.38;;;-3.55;100.00
74169;BME280;62523;53.336;83.690;2023-10-31T23:22:57;99606.81;;;-3.25;100.00
74169;BME280;62523;53.336;83.690;2023-10-31T23:27:59;99604.22;;;-3.28;100.00
74169;BME280;62523;53.336;83.690;2023-10-31T23:33:00;99612.75;;;-3.36;100.00
74169;BME280;62523;53.336;83.690;2023-10-31T23:38:01;99615.44;;;-3.14;100.00
74169;BME280;62523;53.336;83.690;2023-10-31T23:43:02;99621.47;;;-3.06;100.00
74169;BME280;62523;53.336;83.690;2023-10-31T23:48:04;99620.59;;;-3.13;100.00
74169;BME280;62523;53.336;83.690;2023-10-31T23:53:07;99624.88;;;-3.19;100.00
74169;BME280;62523;53.336;83.690;2023-10-31T23:58:09;99627.53;;;-2.93;100.00
